Time;durP1;ratioP1;P1;durP2;ratioP2;P2;SDS_P1;SDS_P2;PMS_P1;PMS_P2;Temp;Humidity;BMP_temperature;BMP_pressure;BME280_temperature;BME280_humidity;BME280_pressure;Samples;Min_cycle;Max_cycle;Signal;HPM_P1;HPM_P2
2024/03/16 00:01:09;;;;;;;5.83;1.93;;;;;;;8.24;100.00;97210.56;5028646;28;20427;-81
2024/03/16 00:03:35;;;;;;;3.53;1.73;;;;;;;8.20;100.00;97219.97;5012996;28;20415;-82
2024/03/16 00:06:01;;;;;;;2.83;1.50;;;;;;;8.25;100.00;97226.13;5016352;28;20494;-81
2024/03/16 00:08:28;;;;;;;3.83;1.80;;;;;;;8.25;100.00;97223.50;5013494;28;20404;-81
2024/03/16 00:10:54;;;;;;;4.00;2.05;;;;;;;8.34;100.00;97222.09;5008067;28;20450;-82
2024/03/16 00:13:20;;;;;;;2.88;1.65;;;;;;;8.31;100.00;97222.56;5015370;28;20456;-80
2024/03/16 00:15:49;;;;;;;3.72;1.55;;;;;;;8.43;100.00;97225.91;5014706;28;20829;-81
2024/03/16 00:18:15;;;;;;;6.82;1.90;;;;;;;8.41;100.00;97224.56;5012391;28;20485;-81
2024/03/16 00:20:42;;;;;;;2.42;1.40;;;;;;;8.39;100.00;97216.09;5021795;28;20419;-80
2024/03/16 00:23:08;;;;;;;4.57;1.40;;;;;;;8.35;100.00;97233.41;5022368;28;20399;-80
2024/03/16 00:25:34;;;;;;;2.83;1.40;;;;;;;8.36;100.00;97233.19;5032446;28;20411;-81
2024/03/16 00:28:01;;;;;;;4.00;1.40;;;;;;;8.28;100.00;97228.28;5027871;28;20711;-80
2024/03/16 00:30:27;;;;;;;2.63;1.50;;;;;;;8.30;100.00;97231.47;5017445;28;20443;-82
2024/03/16 00:32:54;;;;;;;3.63;1.50;;;;;;;8.27;100.00;97228.53;5021853;28;20461;-83
2024/03/16 00:35:20;;;;;;;1.88;1.50;;;;;;;8.23;100.00;97222.13;5022322;28;20434;-81
2024/03/16 00:37:47;;;;;;;2.33;1.55;;;;;;;8.25;100.00;97231.41;5019711;28;20454;-81
2024/03/16 00:40:15;;;;;;;2.38;1.58;;;;;;;8.22;100.00;97223.16;5018676;28;20408;-82
2024/03/16 00:42:41;;;;;;;1.58;1.33;;;;;;;8.14;100.00;97224.38;5009179;28;20401;-82
2024/03/16 00:45:08;;;;;;;2.08;1.30;;;;;;;8.16;100.00;97223.09;5022213;28;20403;-82
2024/03/16 00:47:34;;;;;;;2.25;1.40;;;;;;;8.09;100.00;97219.81;5022573;28;20431;-82
2024/03/16 00:50:00;;;;;;;2.55;1.30;;;;;;;8.08;100.00;97220.84;5013879;28;20431;-82
2024/03/16 00:52:27;;;;;;;2.03;1.30;;;;;;;8.02;100.00;97210.47;5018815;28;20428;-82
2024/03/16 00:54:53;;;;;;;3.35;1.40;;;;;;;7.97;100.00;97228.84;5011323;28;20447;-82
2024/03/16 00:57:19;;;;;;;4.72;1.40;;;;;;;7.91;100.00;97233.22;5022845;28;20422;-81
2024/03/16 00:59:46;;;;;;;4.60;1.63;;;;;;;7.84;100.00;97239.66;5023079;28;20454;-81
2024/03/16 01:02:12;;;;;;;3.47;1.55;;;;;;;7.82;100.00;97239.13;5029713;28;20422;-80
2024/03/16 01:04:38;;;;;;;2.13;1.30;;;;;;;7.82;100.00;97239.88;5030800;28;20411;-81
2024/03/16 01:07:04;;;;;;;3.30;1.27;;;;;;;7.82;100.00;97237.25;5023803;28;20406;-80
2024/03/16 01:09:31;;;;;;;2.88;1.60;;;;;;;7.87;100.00;97239.19;5022688;28;20443;-81
2024/03/16 01:11:57;;;;;;;5.65;1.55;;;;;;;7.90;100.00;97233.44;5021905;28;20427;-81
2024/03/16 01:14:23;;;;;;;2.25;1.30;;;;;;;7.84;100.00;97235.19;5018972;28;20467;-80
2024/03/16 01:16:50;;;;;;;4.32;1.50;;;;;;;7.98;100.00;97231.22;5033348;28;20404;-79
2024/03/16 01:19:16;;;;;;;2.63;1.50;;;;;;;7.96;100.00;97216.69;5021558;28;20404;-80
2024/03/16 01:21:42;;;;;;;3.40;1.40;;;;;;;7.93;100.00;97217.16;5017728;28;20452;-80
2024/03/16 01:24:08;;;;;;;3.33;1.30;;;;;;;7.90;100.00;97213.16;5021434;28;20403;-81
2024/03/16 01:26:35;;;;;;;2.50;1.48;;;;;;;7.93;100.00;97207.41;5017562;28;20409;-80
2024/03/16 01:29:03;;;;;;;2.88;1.50;;;;;;;7.90;100.00;97205.25;5002565;28;20405;-81
2024/03/16 01:31:30;;;;;;;3.47;1.70;;;;;;;7.87;100.00;97210.22;5022495;28;20403;-82
2024/03/16 01:33:56;;;;;;;2.38;1.40;;;;;;;7.93;100.00;97211.88;5005252;28;20418;-80
2024/03/16 01:36:23;;;;;;;2.93;1.40;;;;;;;7.89;100.00;97216.06;5009360;28;20464;-81
2024/03/16 01:38:49;;;;;;;4.10;1.70;;;;;;;7.88;100.00;97206.53;5014170;28;20444;-80
2024/03/16 01:41:16;;;;;;;2.53;1.50;;;;;;;7.81;100.00;97211.16;5009396;28;20451;-81
2024/03/16 01:43:46;;;;;;;4.25;1.58;;;;;;;7.80;100.00;97210.38;5020684;28;20760;-81
2024/03/16 01:46:15;;;;;;;2.38;1.40;;;;;;;7.76;100.00;97214.50;5022748;28;20443;-84
2024/03/16 01:48:41;;;;;;;3.33;1.60;;;;;;;7.80;100.00;97210.38;5020348;28;20401;-82
2024/03/16 01:51:08;;;;;;;2.90;1.40;;;;;;;7.81;100.00;97211.97;5015377;28;20434;-81
2024/03/16 01:53:34;;;;;;;2.40;1.40;;;;;;;7.84;100.00;97219.38;5022475;28;20764;-82
2024/03/16 01:56:00;;;;;;;1.77;1.60;;;;;;;7.87;100.00;97218.91;5014357;28;20895;-80
2024/03/16 01:58:27;;;;;;;3.10;1.50;;;;;;;7.83;100.00;97217.78;5023920;28;20407;-82
2024/03/16 02:00:53;;;;;;;6.60;1.40;;;;;;;7.81;100.00;97211.16;5023398;28;20784;-82
2024/03/16 02:03:19;;;;;;;2.70;1.50;;;;;;;7.84;100.00;97213.31;5023201;28;20435;-82
2024/03/16 02:05:46;;;;;;;4.28;1.48;;;;;;;7.83;100.00;97214.34;5020754;28;20408;-83
2024/03/16 02:08:12;;;;;;;4.03;1.50;;;;;;;7.92;100.00;97218.19;5010711;28;20400;-81
2024/03/16 02:10:39;;;;;;;3.25;1.40;;;;;;;7.86;100.00;97219.94;5010996;28;20399;-82
2024/03/16 02:13:05;;;;;;;1.70;1.35;;;;;;;7.87;100.00;97218.91;5021815;28;20427;-81
2024/03/16 02:15:32;;;;;;;3.17;1.52;;;;;;;7.87;100.00;97218.13;5022955;28;20403;-81
2024/03/16 02:17:58;;;;;;;1.35;1.25;;;;;;;7.88;100.00;97225.00;5023340;28;20475;-83
2024/03/16 02:20:26;;;;;;;1.40;1.20;;;;;;;7.84;100.00;97222.00;5023378;28;20465;-82
2024/03/16 02:22:52;;;;;;;1.30;1.20;;;;;;;7.89;100.00;97223.97;5022879;28;20395;-80
2024/03/16 02:25:19;;;;;;;3.20;1.60;;;;;;;7.84;100.00;97216.75;5023017;28;20399;-81
2024/03/16 02:27:45;;;;;;;3.17;1.55;;;;;;;7.83;100.00;97220.41;5021474;28;20414;-81
2024/03/16 02:30:14;;;;;;;3.08;1.90;;;;;;;7.80;100.00;97215.63;5020429;28;20411;-82
2024/03/16 02:32:40;;;;;;;1.90;1.45;;;;;;;7.78;100.00;97215.88;5023952;28;20403;-81
2024/03/16 02:35:10;;;;;;;2.45;1.30;;;;;;;7.80;100.00;97217.47;5022465;28;20446;-80
2024/03/16 02:37:36;;;;;;;4.22;1.25;;;;;;;7.79;100.00;97224.56;5023423;28;20415;-83
2024/03/16 02:40:06;;;;;;;1.65;1.50;;;;;;;7.79;100.00;97216.66;5019839;28;20419;-83
2024/03/16 02:42:32;;;;;;;5.65;1.50;;;;;;;7.73;100.00;97215.00;5019723;28;20457;-81
2024/03/16 02:44:59;;;;;;;5.30;2.17;;;;;;;7.79;100.00;97214.03;5021762;28;20440;-83
2024/03/16 02:47:25;;;;;;;3.13;1.20;;;;;;;7.78;100.00;97209.78;5012991;28;20411;-82
2024/03/16 02:49:52;;;;;;;1.98;1.60;;;;;;;7.77;100.00;97211.63;5021332;28;20408;-82
2024/03/16 02:52:18;;;;;;;2.28;1.42;;;;;;;7.78;100.00;97209.78;5016559;28;20411;-81
2024/03/16 02:54:45;;;;;;;4.03;1.60;;;;;;;7.82;100.00;97210.91;5019204;28;20766;-81
2024/03/16 02:57:11;;;;;;;4.90;1.60;;;;;;;7.78;100.00;97209.78;5003031;28;20409;-81
2024/03/16 02:59:37;;;;;;;3.20;1.40;;;;;;;7.82;100.00;97202.22;5008645;28;20399;-83
2024/03/16 03:02:05;;;;;;;7.57;1.67;;;;;;;7.80;100.00;97201.66;5019454;28;20485;-81
2024/03/16 03:04:31;;;;;;;4.30;1.70;;;;;;;7.83;100.00;97209.06;5018791;28;20481;-81
2024/03/16 03:06:58;;;;;;;4.30;1.60;;;;;;;7.84;100.00;97202.78;5026973;28;20402;-81
2024/03/16 03:09:24;;;;;;;2.67;1.52;;;;;;;7.81;100.00;97208.53;5024116;28;20411;-82
2024/03/16 03:11:50;;;;;;;6.07;1.50;;;;;;;7.80;100.00;97206.94;5021717;28;20407;-82
2024/03/16 03:14:16;;;;;;;2.20;1.60;;;;;;;7.88;100.00;97211.81;5020448;28;20424;-83
2024/03/16 03:16:43;;;;;;;6.30;1.90;;;;;;;7.85;100.00;97213.06;5039113;28;20463;-80
2024/03/16 03:19:10;;;;;;;3.22;1.40;;;;;;;7.91;100.00;97220.03;5021206;28;20430;-79
2024/03/16 03:21:37;;;;;;;1.73;1.30;;;;;;;7.93;100.00;97212.69;5017266;28;20459;-82
2024/03/16 03:24:03;;;;;;;4.78;1.60;;;;;;;7.98;100.00;97222.50;5017223;28;20842;-83
2024/03/16 03:26:29;;;;;;;3.63;1.60;;;;;;;7.95;100.00;97218.53;5006207;28;20413;-82
2024/03/16 03:28:56;;;;;;;2.90;1.45;;;;;;;8.01;100.00;97222.03;5004619;28;20407;-81
2024/03/16 03:31:24;;;;;;;4.93;1.58;;;;;;;7.91;100.00;97221.88;5022541;28;20414;-80
2024/03/16 03:33:50;;;;;;;3.10;1.38;;;;;;;7.89;100.00;97210.78;5018823;28;20405;-81
2024/03/16 03:36:16;;;;;;;3.37;1.50;;;;;;;7.91;100.00;97227.94;5016964;28;20447;-80
2024/03/16 03:38:43;;;;;;;6.38;1.80;;;;;;;7.93;100.00;97222.44;5016717;28;20767;-81
2024/03/16 03:41:09;;;;;;;3.00;1.30;;;;;;;7.95;100.00;97218.53;5018665;28;20495;-78
2024/03/16 03:43:37;;;;;;;5.20;1.60;;;;;;;8.01;100.00;97227.31;5018430;28;20427;-83
2024/03/16 03:46:04;;;;;;;2.75;1.50;;;;;;;7.94;100.00;97224.84;5018982;28;20406;-81
2024/03/16 03:48:41;;;;;;;2.30;1.50;;;;;;;7.93;100.00;97225.06;5019532;28;20741;-78
2024/03/16 03:51:07;;;;;;;8.07;1.60;;;;;;;7.91;100.00;97237.69;5005335;28;20414;-81
2024/03/16 03:53:33;;;;;;;2.55;1.92;;;;;;;7.88;100.00;97238.97;5017766;28;20402;-81
2024/03/16 03:56:00;;;;;;;4.10;1.50;;;;;;;7.88;100.00;97235.53;5018692;28;20474;-81
2024/03/16 03:58:26;;;;;;;6.57;1.70;;;;;;;7.86;100.00;97242.88;5018956;28;20871;-81
2024/03/16 04:00:52;;;;;;;1.95;1.40;;;;;;;7.87;100.00;97253.19;5018499;28;20454;-81
2024/03/16 04:03:18;;;;;;;4.27;1.60;;;;;;;7.86;100.00;97254.22;5018217;28;20876;-80
2024/03/16 04:05:45;;;;;;;3.50;1.52;;;;;;;7.88;100.00;97262.69;5017854;28;20469;-81
2024/03/16 04:08:11;;;;;;;3.47;1.50;;;;;;;7.87;100.00;97255.81;5018514;28;20738;-81
2024/03/16 04:10:37;;;;;;;1.75;1.25;;;;;;;7.88;100.00;97257.41;5018892;28;20449;-82
2024/03/16 04:13:04;;;;;;;1.17;1.13;;;;;;;7.90;100.00;97270.34;5018413;28;20407;-81
2024/03/16 04:15:30;;;;;;;1.40;1.30;;;;;;;7.91;100.00;97279.84;5017931;28;20403;-81
2024/03/16 04:17:57;;;;;;;2.20;1.40;;;;;;;7.93;100.00;97278.56;5018052;28;20433;-83
2024/03/16 04:20:23;;;;;;;9.18;1.90;;;;;;;7.99;100.00;97279.47;5018771;28;20399;-80
2024/03/16 04:22:49;;;;;;;3.88;1.60;;;;;;;8.00;100.00;97287.13;5018393;28;20490;-83
2024/03/16 04:25:16;;;;;;;2.78;1.50;;;;;;;8.01;100.00;97293.22;5019526;28;20900;-81
2024/03/16 04:27:43;;;;;;;4.00;1.80;;;;;;;8.06;100.00;97294.09;5012294;28;20507;-83
2024/03/16 04:30:10;;;;;;;2.50;1.70;;;;;;;8.04;100.00;97309.34;5015393;28;20400;-82
2024/03/16 04:32:37;;;;;;;4.57;1.70;;;;;;;8.03;100.00;97317.50;5012887;28;20463;-82
2024/03/16 04:35:04;;;;;;;2.55;1.70;;;;;;;8.00;100.00;97313.50;5015666;28;20431;-83
2024/03/16 04:37:30;;;;;;;8.25;2.58;;;;;;;7.97;100.00;97310.56;5010743;28;20432;-83
2024/03/16 04:39:58;;;;;;;6.15;2.03;;;;;;;7.99;100.00;97303.19;5019036;28;20422;-84
2024/03/16 04:42:24;;;;;;;8.32;2.47;;;;;;;7.93;100.00;97304.94;5021205;28;20410;-82
2024/03/16 04:44:50;;;;;;;4.28;1.83;;;;;;;7.89;100.00;97301.19;5022777;28;20478;-82
2024/03/16 04:47:17;;;;;;;4.13;1.90;;;;;;;7.84;100.00;97297.63;5021859;28;20434;-83
2024/03/16 04:49:44;;;;;;;4.53;2.10;;;;;;;7.84;100.00;97303.69;5020713;28;20430;-82
2024/03/16 04:52:13;;;;;;;8.07;2.30;;;;;;;7.81;100.00;97292.84;5020838;28;20406;-82
2024/03/16 04:54:40;;;;;;;9.35;2.30;;;;;;;7.74;100.00;97291.13;5023033;28;20415;-83
2024/03/16 04:57:06;;;;;;;6.93;2.00;;;;;;;7.67;100.00;97287.03;5018532;28;20404;-81
2024/03/16 04:59:32;;;;;;;9.27;2.42;;;;;;;7.65;100.00;97281.22;5019396;28;20434;-82
2024/03/16 05:01:58;;;;;;;12.82;2.40;;;;;;;7.62;100.00;97284.31;5024862;28;20904;-83
2024/03/16 05:04:26;;;;;;;8.25;2.50;;;;;;;7.64;100.00;97282.25;5025785;28;20399;-82
2024/03/16 05:06:53;;;;;;;6.30;2.15;;;;;;;7.68;100.00;97286.00;5021992;28;20405;-81
2024/03/16 05:09:19;;;;;;;8.05;2.17;;;;;;;7.68;100.00;97281.53;5022120;28;20395;-83
2024/03/16 05:11:45;;;;;;;7.65;2.30;;;;;;;7.71;100.00;97282.91;5025545;28;20415;-82
2024/03/16 05:14:11;;;;;;;6.38;2.30;;;;;;;7.69;100.00;97282.34;5022255;28;20876;-82
2024/03/16 05:16:38;;;;;;;4.55;1.90;;;;;;;7.69;100.00;97282.34;5023580;28;20446;-82
2024/03/16 05:19:04;;;;;;;4.20;1.92;;;;;;;7.66;100.00;97280.19;5023462;28;20407;-81
2024/03/16 05:21:30;;;;;;;8.20;2.70;;;;;;;7.64;100.00;97290.16;5022745;28;20478;-81
2024/03/16 05:23:57;;;;;;;4.82;2.20;;;;;;;7.59;100.00;97297.97;5023336;28;20903;-83
2024/03/16 05:26:23;;;;;;;5.97;2.20;;;;;;;7.63;100.00;97293.81;5023464;28;20470;-81
2024/03/16 05:28:49;;;;;;;7.03;2.33;;;;;;;7.61;100.00;97293.25;5025297;28;20764;-82
2024/03/16 05:31:16;;;;;;;5.65;2.20;;;;;;;7.61;100.00;97294.03;5023703;28;20446;-83
2024/03/16 05:33:42;;;;;;;5.50;2.30;;;;;;;7.61;100.00;97295.88;5023922;28;20446;-83
2024/03/16 05:36:14;;;;;;;7.03;2.03;;;;;;;7.60;100.00;97295.06;5022544;28;20408;-83
2024/03/16 05:38:43;;;;;;;5.95;2.00;;;;;;;7.63;100.00;97310.44;5020610;28;20401;-83
2024/03/16 05:41:09;;;;;;;9.70;2.45;;;;;;;7.66;100.00;97309.16;5010017;28;20445;-81
2024/03/16 05:43:36;;;;;;;5.43;2.25;;;;;;;7.66;100.00;97315.25;5019183;28;20468;-84
2024/03/16 05:46:02;;;;;;;11.63;2.60;;;;;;;7.64;100.00;97314.66;5032156;28;20425;-82
2024/03/16 05:48:28;;;;;;;7.38;2.13;;;;;;;7.67;100.00;97321.28;5023108;28;20451;-82
2024/03/16 05:50:55;;;;;;;6.32;2.55;;;;;;;7.66;100.00;97319.72;5021852;28;20700;-82
2024/03/16 05:53:22;;;;;;;6.07;2.15;;;;;;;7.64;100.00;97325.19;5023497;28;20426;-82
2024/03/16 05:55:48;;;;;;;3.80;1.95;;;;;;;7.66;100.00;97325.78;5022393;28;20457;-82
2024/03/16 05:58:15;;;;;;;2.67;1.80;;;;;;;7.66;100.00;97335.50;5019751;28;20803;-79
2024/03/16 06:00:42;;;;;;;8.90;1.90;;;;;;;7.68;100.00;97336.06;5021095;28;20402;-83
2024/03/16 06:03:08;;;;;;;2.65;1.90;;;;;;;7.68;100.00;97341.31;5022849;28;20425;-81
2024/03/16 06:05:37;;;;;;;4.45;1.63;;;;;;;7.72;100.00;97335.38;5024399;28;20482;-81
2024/03/16 06:08:07;;;;;;;3.22;1.63;;;;;;;7.75;100.00;97337.53;5024168;28;20435;-82
2024/03/16 06:10:34;;;;;;;5.15;1.95;;;;;;;7.77;100.00;97342.56;5024385;28;20403;-83
2024/03/16 06:13:00;;;;;;;6.55;1.60;;;;;;;7.78;100.00;97347.63;5026516;28;20419;-82
2024/03/16 06:15:26;;;;;;;7.07;2.07;;;;;;;7.83;100.00;97346.09;5024698;28;20396;-82
2024/03/16 06:17:52;;;;;;;4.38;1.77;;;;;;;7.84;100.00;97345.88;5025403;28;20395;-81
2024/03/16 06:20:19;;;;;;;3.60;1.65;;;;;;;7.83;100.00;97348.72;5025784;28;20399;-82
2024/03/16 06:22:45;;;;;;;4.45;1.80;;;;;;;7.82;100.00;97360.34;5028995;28;20411;-83
2024/03/16 06:25:13;;;;;;;3.50;1.40;;;;;;;7.76;100.00;97362.03;5027111;28;20406;-82
2024/03/16 06:27:53;;;;;;;2.53;1.42;;;;;;;7.70;100.00;97366.41;5026369;28;20657;-82
2024/03/16 06:30:27;;;;;;;4.13;1.73;;;;;;;7.68;100.00;97363.22;5025095;28;20418;-81
2024/03/16 06:33:08;;;;;;;2.40;1.40;;;;;;;7.71;100.00;97370.66;5022870;28;20438;-83
2024/03/16 06:35:36;;;;;;;6.68;1.85;;;;;;;7.74;100.00;97374.66;5023125;28;20399;-81
2024/03/16 06:38:02;;;;;;;4.68;1.50;;;;;;;7.80;100.00;97379.00;5015230;28;20420;-81
2024/03/16 06:40:28;;;;;;;3.50;1.50;;;;;;;7.86;100.00;97378.06;5019695;28;20904;-81
2024/03/16 06:42:55;;;;;;;6.07;1.50;;;;;;;7.94;100.00;97380.34;5026566;28;20425;-82
2024/03/16 06:45:21;;;;;;;4.85;1.50;;;;;;;8.03;100.00;97380.78;5036133;28;20430;-81
2024/03/16 06:47:47;;;;;;;6.23;1.40;;;;;;;8.19;100.00;97387.94;5016291;28;20768;-81
2024/03/16 06:50:14;;;;;;;3.45;1.50;;;;;;;8.15;100.00;97389.44;5034968;28;20429;-76
2024/03/16 06:52:40;;;;;;;7.40;1.52;;;;;;;8.18;100.00;97394.25;5031408;28;20418;-81
2024/03/16 06:55:09;;;;;;;4.15;1.65;;;;;;;8.15;100.00;97394.69;5006684;28;20506;-80
2024/03/16 06:57:35;;;;;;;4.25;1.80;;;;;;;8.15;100.00;97399.97;5023786;28;20407;-81
2024/03/16 07:00:02;;;;;;;4.60;1.50;;;;;;;8.12;100.00;97401.22;5017791;28;20426;-81
2024/03/16 07:02:28;;;;;;;5.53;1.58;;;;;;;8.11;100.00;97410.19;5007562;28;20475;-81
2024/03/16 07:04:56;;;;;;;3.17;1.40;;;;;;;8.11;100.00;97402.28;5005998;28;20397;-81
2024/03/16 07:07:23;;;;;;;4.55;1.50;;;;;;;8.13;100.00;97409.94;5030804;28;20403;-81
2024/03/16 07:09:49;;;;;;;5.60;1.65;;;;;;;8.18;100.00;97412.69;5027084;28;20399;-81
2024/03/16 07:12:15;;;;;;;4.78;1.40;;;;;;;8.25;100.00;97421.28;5022984;28;20404;-82
2024/03/16 07:14:42;;;;;;;4.47;1.42;;;;;;;8.30;100.00;97426.63;5028395;28;20403;-82
2024/03/16 07:17:08;;;;;;;6.32;1.92;;;;;;;8.33;100.00;97431.47;5032673;28;20413;-80
2024/03/16 07:19:34;;;;;;;6.57;1.50;;;;;;;8.34;100.00;97434.91;5035728;28;20408;-82
2024/03/16 07:22:01;;;;;;;6.85;1.70;;;;;;;8.35;100.00;97447.03;5023350;28;20839;-81
2024/03/16 07:24:28;;;;;;;5.68;1.40;;;;;;;8.33;100.00;97446.50;5024390;28;20466;-81
2024/03/16 07:26:54;;;;;;;13.67;2.00;;;;;;;8.34;100.00;97451.53;5012366;28;20468;-84
2024/03/16 07:29:21;;;;;;;9.50;1.60;;;;;;;8.35;100.00;97457.59;5008407;28;20405;-82
2024/03/16 07:31:49;;;;;;;4.38;1.40;;;;;;;8.41;100.00;97470.66;5019665;28;20405;-82
2024/03/16 07:34:16;;;;;;;6.13;1.50;;;;;;;8.38;100.00;97465.84;5018950;28;20405;-82
2024/03/16 07:36:42;;;;;;;3.25;1.40;;;;;;;8.39;100.00;97474.56;5035546;28;20414;-81
2024/03/16 07:39:09;;;;;;;2.80;1.42;;;;;;;8.37;100.00;97474.81;5006757;28;20401;-82
2024/03/16 07:41:36;;;;;;;10.68;1.58;;;;;;;8.38;100.00;97472.97;5000618;28;20466;-82
2024/03/16 07:44:02;;;;;;;15.88;2.58;;;;;;;8.31;100.00;97462.56;4993652;28;20486;-80
2024/03/16 07:46:29;;;;;;;6.35;1.90;;;;;;;8.27;100.00;97465.88;5019061;28;20762;-81
2024/03/16 07:49:01;;;;;;;7.80;1.77;;;;;;;8.29;100.00;97471.69;4998927;28;20436;-81
2024/03/16 07:51:31;;;;;;;2.63;1.50;;;;;;;8.31;100.00;97467.81;4999930;28;20412;-81
2024/03/16 07:53:58;;;;;;;6.10;1.70;;;;;;;8.36;100.00;97475.81;5001900;28;20399;-82
2024/03/16 07:56:25;;;;;;;6.47;1.75;;;;;;;8.42;100.00;97474.88;5020001;28;20826;-82
2024/03/16 07:58:51;;;;;;;13.33;2.20;;;;;;;8.45;100.00;97477.06;5018605;28;20414;-80
2024/03/16 08:01:19;;;;;;;3.35;1.60;;;;;;;8.53;100.00;97479.34;5005089;28;20423;-81
2024/03/16 08:03:46;;;;;;;6.50;1.63;;;;;;;8.64;100.00;97492.72;5001063;28;20506;-81
2024/03/16 08:06:12;;;;;;;2.72;1.73;;;;;;;8.68;100.00;97492.00;4999465;28;20408;-83
2024/03/16 08:08:38;;;;;;;5.72;1.88;;;;;;;8.59;100.00;97482.84;5012348;28;20404;-83
2024/03/16 08:11:04;;;;;;;5.03;1.92;;;;;;;8.65;100.00;97494.31;4999456;28;20404;-81
2024/03/16 08:13:31;;;;;;;9.70;1.80;;;;;;;8.67;100.00;97498.31;4999979;28;20408;-82
2024/03/16 08:15:59;;;;;;;5.15;1.90;;;;;;;8.72;100.00;97497.63;5001601;28;20432;-80
2024/03/16 08:18:25;;;;;;;2.33;1.60;;;;;;;8.74;100.00;97498.97;5014766;28;20404;-81
2024/03/16 08:20:56;;;;;;;5.18;1.63;;;;;;;8.77;100.00;97506.44;5012493;28;20455;-81
2024/03/16 08:23:22;;;;;;;9.18;1.83;;;;;;;8.75;100.00;97507.69;5019321;28;20886;-80
2024/03/16 08:25:48;;;;;;;5.95;1.88;;;;;;;8.81;100.00;97504.09;5005640;28;20404;-82
2024/03/16 08:28:15;;;;;;;6.07;2.03;;;;;;;8.87;100.00;97513.75;5020004;28;20401;-82
2024/03/16 08:30:41;;;;;;;6.25;1.70;;;;;;;8.98;100.00;97518.16;5020616;28;20431;-83
2024/03/16 08:33:07;;;;;;;4.10;1.60;;;;;;;9.07;100.00;97513.28;5021260;28;20411;-80
2024/03/16 08:35:35;;;;;;;3.28;1.30;;;;;;;9.11;100.00;97509.13;5021592;28;20441;-81
2024/03/16 08:38:01;;;;;;;3.65;1.35;;;;;;;9.15;100.00;97508.41;5019667;28;20924;-82
2024/03/16 08:40:27;;;;;;;3.60;1.10;;;;;;;9.17;100.00;97508.97;5007886;28;20420;-81
2024/03/16 08:42:54;;;;;;;7.85;1.40;;;;;;;9.22;100.00;97517.00;5022438;28;20479;-82
2024/03/16 08:45:20;;;;;;;5.60;1.30;;;;;;;9.32;100.00;97517.13;5017522;28;20431;-80
2024/03/16 08:47:46;;;;;;;1.17;1.10;;;;;;;9.53;100.00;97518.28;5021569;28;20410;-81
2024/03/16 08:50:13;;;;;;;4.07;1.30;;;;;;;9.76;100.00;97519.16;5023118;28;20426;-80
2024/03/16 08:52:39;;;;;;;4.47;1.10;;;;;;;9.81;100.00;97522.66;5021838;28;20412;-81
2024/03/16 08:55:05;;;;;;;3.28;1.20;;;;;;;9.80;100.00;97525.53;5017404;28;20399;-81
2024/03/16 08:57:32;;;;;;;2.33;1.10;;;;;;;10.06;100.00;97527.50;5021445;28;20405;-81
2024/03/16 08:59:58;;;;;;;1.33;1.00;;;;;;;10.42;100.00;97529.59;5024256;28;20453;-82
2024/03/16 09:02:24;;;;;;;1.13;1.00;;;;;;;10.69;100.00;97537.59;5024188;28;20421;-81
2024/03/16 09:04:51;;;;;;;1.00;0.82;;;;;;;10.52;100.00;97533.44;5010173;28;20499;-80
2024/03/16 09:07:19;;;;;;;3.60;1.00;;;;;;;10.23;100.00;97541.50;5025550;28;20476;-79
2024/03/16 09:09:46;;;;;;;3.00;1.00;;;;;;;10.04;100.00;97537.53;5024302;28;20403;-82
2024/03/16 09:12:12;;;;;;;0.93;0.93;;;;;;;9.93;100.00;97549.78;5010959;28;20487;-81
2024/03/16 09:14:38;;;;;;;2.93;1.10;;;;;;;9.90;100.00;97547.66;5016924;28;20410;-82
2024/03/16 09:17:05;;;;;;;3.33;1.10;;;;;;;10.05;100.00;97558.44;5023054;28;20847;-81
2024/03/16 09:19:34;;;;;;;1.75;1.05;;;;;;;10.21;100.00;97548.13;5028077;28;20387;-80
2024/03/16 09:22:00;;;;;;;2.90;1.00;;;;;;;10.56;100.00;97551.19;5025823;28;20419;-80
2024/03/16 09:24:27;;;;;;;1.77;1.08;;;;;;;10.88;100.00;97553.16;5020533;28;20439;-82
2024/03/16 09:26:53;;;;;;;1.30;1.00;;;;;;;10.75;100.00;97549.81;5017854;28;20405;-80
2024/03/16 09:29:20;;;;;;;3.20;1.08;;;;;;;10.98;100.00;97567.28;5018995;28;20396;-79
2024/03/16 09:31:46;;;;;;;1.30;1.00;;;;;;;11.01;100.00;97561.50;5019833;28;20439;-80
2024/03/16 09:34:14;;;;;;;2.17;1.05;;;;;;;10.97;100.00;97560.41;5017918;28;20405;-82
2024/03/16 09:36:40;;;;;;;2.75;1.00;;;;;;;11.30;100.00;97558.59;5022967;28;20766;-80
2024/03/16 09:39:10;;;;;;;1.40;1.03;;;;;;;11.88;100.00;97573.69;5024590;28;20422;-81
2024/03/16 09:41:38;;;;;;;1.60;0.77;;;;;;;12.03;100.00;97573.81;5027074;28;20423;-81
2024/03/16 09:44:04;;;;;;;1.75;0.90;;;;;;;11.99;100.00;97570.88;5019946;28;20403;-80
2024/03/16 09:46:31;;;;;;;1.15;0.85;;;;;;;11.94;100.00;97575.34;5035812;28;20431;-79
2024/03/16 09:48:57;;;;;;;2.22;0.88;;;;;;;11.81;100.00;97600.44;5030422;28;20443;-81
2024/03/16 09:51:24;;;;;;;2.45;1.02;;;;;;;11.52;100.00;97583.19;5022100;28;20424;-78
2024/03/16 09:53:50;;;;;;;2.42;1.10;;;;;;;11.34;100.00;97576.41;5028217;28;20474;-79
2024/03/16 09:56:16;;;;;;;2.00;1.10;;;;;;;11.34;100.00;97592.31;5038256;28;20406;-81
2024/03/16 09:58:42;;;;;;;2.30;0.98;;;;;;;11.69;100.00;97593.69;5040038;28;20418;-82
2024/03/16 10:01:09;;;;;;;1.92;0.90;;;;;;;11.76;100.00;97589.78;5036634;28;20403;-83
2024/03/16 10:03:36;;;;;;;4.00;1.10;;;;;;;11.65;100.00;97583.56;5033179;28;20397;-83
2024/03/16 10:06:07;;;;;;;2.88;0.90;;;;;;;11.71;100.00;97583.63;5027535;28;20463;-83
2024/03/16 10:08:36;;;;;;;5.30;1.00;;;;;;;11.50;100.00;97588.75;5034647;28;20507;-81
2024/03/16 10:11:12;;;;;;;1.60;0.80;;;;;;;11.56;100.00;97602.84;5021623;28;20459;-81
2024/03/16 10:13:38;;;;;;;0.70;0.70;;;;;;;11.61;100.00;97602.91;5021976;28;20441;-79
2024/03/16 10:16:08;;;;;;;3.08;0.90;;;;;;;11.62;100.00;97610.59;5025868;28;20407;-78
2024/03/16 10:18:35;;;;;;;0.95;0.85;;;;;;;11.89;100.00;97607.13;5014624;28;20399;-77
2024/03/16 10:21:02;;;;;;;1.40;0.90;;;;;;;12.10;100.00;97610.75;5030160;28;20402;-78
2024/03/16 10:23:29;;;;;;;0.80;0.63;;;;;;;12.70;100.00;97611.09;5002792;28;20405;-80
2024/03/16 10:25:56;;;;;;;0.60;0.60;;;;;;;13.61;100.00;97628.41;5017971;28;20818;-79
2024/03/16 10:28:22;;;;;;;0.50;0.50;;;;;;;14.22;100.00;97615.88;5010977;28;20401;-79
2024/03/16 10:30:49;;;;;;;0.40;0.40;;;;;;;14.42;100.00;97615.91;5010257;28;20408;-78
2024/03/16 10:33:18;;;;;;;2.70;0.50;;;;;;;14.24;100.00;97624.41;5008170;28;20426;-76
2024/03/16 10:35:44;;;;;;;0.70;0.50;;;;;;;13.83;100.00;97597.81;5004732;28;20499;-78
2024/03/16 10:38:11;;;;;;;0.90;0.52;;;;;;;13.57;100.00;97602.34;5009136;28;20412;-76
2024/03/16 10:40:40;;;;;;;1.02;0.60;;;;;;;13.17;100.00;97604.91;5006651;28;20408;-79
2024/03/16 10:43:08;;;;;;;1.65;0.82;;;;;;;12.86;100.00;97608.50;4993483;28;20545;-78
2024/03/16 10:45:35;;;;;;;0.70;0.70;;;;;;;12.69;100.00;97617.47;5008076;28;20435;-78
2024/03/16 10:48:02;;;;;;;2.22;0.60;;;;;;;12.68;100.00;97629.16;5007368;28;20399;-79
2024/03/16 10:50:31;;;;;;;0.82;0.68;;;;;;;12.72;100.00;97630.22;5004506;28;20400;-77
2024/03/16 10:52:58;;;;;;;2.10;0.70;;;;;;;12.82;100.00;97642.75;5015603;28;20407;-79
2024/03/16 10:55:24;;;;;;;0.55;0.55;;;;;;;12.67;100.00;97637.38;5013993;28;20467;-78
2024/03/16 10:57:51;;;;;;;1.67;0.70;;;;;;;12.73;100.00;97628.38;5008253;28;20404;-78
2024/03/16 11:00:29;;;;;;;0.75;0.68;;;;;;;12.24;100.00;97620.66;5019998;28;20399;-77
2024/03/16 11:03:07;;;;;;;1.58;0.70;;;;;;;12.27;100.00;97614.84;5011117;28;20425;-77
2024/03/16 11:05:34;;;;;;;1.20;0.70;;;;;;;12.07;100.00;97625.31;5009397;28;20833;-78
2024/03/16 11:08:03;;;;;;;1.00;0.82;;;;;;;12.12;100.00;97619.22;5004359;28;20495;-78
2024/03/16 11:10:39;;;;;;;0.82;0.68;;;;;;;12.65;100.00;97636.81;5007662;28;20521;-78
2024/03/16 11:13:13;;;;;;;0.93;0.70;;;;;;;13.20;100.00;97623.00;5015239;28;20407;-81
2024/03/16 11:15:40;;;;;;;0.68;0.63;;;;;;;13.47;100.00;97628.09;5015290;28;20397;-78
2024/03/16 11:18:52;;;;;;;1.77;0.80;;;;;;;13.80;100.00;97618.84;5010901;28;20397;-79
2024/03/16 11:21:20;;;;;;;1.20;0.70;;;;;;;13.95;100.00;97606.34;5029004;28;20911;-80
2024/03/16 11:23:47;;;;;;;0.95;0.70;;;;;;;14.62;100.00;97596.41;5026102;28;20399;-81
2024/03/16 11:26:37;;;;;;;0.90;0.70;;;;;;;14.79;100.00;97601.41;5009937;28;20396;-78
2024/03/16 11:29:27;;;;;;;0.60;0.60;;;;;;;15.01;100.00;97602.66;5019689;28;20530;-77
2024/03/16 11:31:54;;;;;;;0.80;0.60;;;;;;;15.56;100.00;97600.78;5027149;28;20421;-82